createdAt,value
2023-04-20T00:01:48.828Z,7.55
2023-04-20T00:04:16.262Z,7.59
2023-04-20T00:06:45.042Z,7.64
2023-04-20T00:09:13.984Z,7.62
2023-04-20T00:11:41.275Z,7.66
2023-04-20T00:14:08.628Z,7.68
2023-04-20T00:16:35.672Z,7.68
2023-04-20T00:19:03.028Z,7.68
2023-04-20T00:21:30.108Z,7.66
2023-04-20T00:23:57.139Z,7.60
2023-04-20T00:26:24.258Z,7.54
2023-04-20T00:28:53.972Z,7.55
2023-04-20T00:31:21.285Z,7.54
2023-04-20T00:33:48.949Z,7.49
2023-04-20T00:36:16.007Z,7.47
2023-04-20T00:38:43.049Z,7.50
2023-04-20T00:41:10.084Z,7.49
2023-04-20T00:43:37.809Z,7.47
2023-04-20T00:46:06.541Z,7.48
2023-04-20T00:48:33.616Z,7.46
2023-04-20T00:51:02.510Z,7.41
2023-04-20T00:53:32.484Z,7.42
2023-04-20T00:55:59.788Z,7.39
2023-04-20T00:58:27.017Z,7.38
2023-04-20T01:00:54.158Z,7.39
2023-04-20T01:03:21.491Z,7.34
2023-04-20T01:05:48.950Z,7.44
2023-04-20T01:08:16.132Z,7.39
2023-04-20T01:10:43.198Z,7.43
2023-04-20T01:13:10.448Z,7.50
2023-04-20T01:15:37.507Z,7.52
2023-04-20T01:18:06.086Z,7.53
2023-04-20T01:20:33.387Z,7.58
2023-04-20T01:23:01.063Z,7.60
2023-04-20T01:25:28.120Z,7.57
2023-04-20T01:27:55.158Z,7.61
2023-04-20T01:30:22.698Z,7.66
2023-04-20T01:32:49.985Z,7.68
2023-04-20T01:35:17.076Z,7.67
2023-04-20T01:37:45.215Z,7.68
2023-04-20T01:40:13.506Z,7.69
2023-04-20T01:42:41.034Z,7.69
2023-04-20T01:45:08.947Z,7.65
2023-04-20T01:47:37.177Z,7.70
2023-04-20T01:50:04.443Z,7.72
2023-04-20T01:52:31.633Z,7.73
2023-04-20T01:54:58.650Z,7.72
2023-04-20T01:57:25.860Z,7.77
2023-04-20T01:59:52.876Z,7.81
2023-04-20T02:02:19.964Z,7.77
2023-04-20T02:04:47.160Z,7.85
2023-04-20T02:07:14.218Z,7.86
2023-04-20T02:09:41.191Z,7.88
2023-04-20T02:12:10.134Z,7.90
2023-04-20T02:14:39.718Z,7.93
2023-04-20T02:17:10.772Z,7.92
2023-04-20T02:19:38.059Z,7.97
2023-04-20T02:22:05.185Z,7.97
2023-04-20T02:24:32.627Z,7.99
2023-04-20T02:26:59.648Z,8.00
2023-04-20T02:29:26.706Z,8.00
2023-04-20T02:31:53.762Z,8.03
2023-04-20T02:34:22.233Z,8.00
2023-04-20T02:36:49.506Z,8.05
2023-04-20T02:39:16.783Z,8.04
2023-04-20T02:41:44.236Z,8.04
2023-04-20T02:44:12.296Z,8.02
2023-04-20T02:46:39.852Z,7.98
2023-04-20T02:49:08.391Z,8.03
2023-04-20T02:51:40.365Z,8.02
2023-04-20T02:54:07.453Z,8.00
2023-04-20T02:56:34.537Z,8.03
2023-04-20T02:59:05.817Z,7.98
2023-04-20T03:01:57.904Z,8.02
2023-04-20T03:04:27.939Z,7.99
2023-04-20T03:07:05.065Z,8.04
2023-04-20T03:09:34.690Z,8.01
2023-04-20T03:12:14.800Z,8.05
2023-04-20T03:15:00.345Z,8.07
2023-04-20T03:17:47.295Z,8.08
2023-04-20T03:20:15.384Z,8.06
2023-04-20T03:22:42.783Z,8.10
2023-04-20T03:25:10.316Z,8.09
2023-04-20T03:27:59.850Z,8.09
2023-04-20T03:30:27.582Z,8.10
2023-04-20T03:33:01.089Z,8.11
2023-04-20T03:35:28.543Z,8.08
2023-04-20T03:37:55.694Z,8.07
2023-04-20T03:40:22.888Z,8.06
2023-04-20T03:42:49.931Z,8.02
2023-04-20T03:45:17.403Z,8.02
2023-04-20T03:47:44.432Z,7.95
2023-04-20T03:50:11.605Z,7.91
2023-04-20T03:52:39.732Z,7.93
2023-04-20T03:55:07.385Z,7.86
2023-04-20T03:57:38.806Z,7.88
2023-04-20T04:00:07.317Z,7.89
2023-04-20T04:02:45.472Z,7.92
2023-04-20T04:05:14.352Z,7.93
2023-04-20T04:07:41.457Z,7.93
2023-04-20T04:10:09.888Z,7.92
2023-04-20T04:12:37.000Z,7.96
2023-04-20T04:15:05.169Z,7.97
2023-04-20T04:17:35.664Z,8.03
2023-04-20T04:20:02.668Z,8.02
2023-04-20T04:22:31.359Z,8.05
2023-04-20T04:25:23.397Z,8.03
2023-04-20T04:27:51.300Z,8.00
2023-04-20T04:30:20.059Z,7.98
2023-04-20T04:32:49.230Z,8.02
2023-04-20T04:35:17.137Z,8.03
2023-04-20T04:37:44.298Z,8.05
2023-04-20T04:40:11.654Z,8.07
2023-04-20T04:42:39.033Z,8.08
2023-04-20T04:45:07.952Z,8.17
2023-04-20T04:47:37.446Z,8.23
2023-04-20T04:50:09.459Z,8.29
2023-04-20T04:52:37.389Z,8.34
2023-04-20T04:55:08.483Z,8.37
2023-04-20T04:57:36.406Z,8.46
2023-04-20T05:00:08.149Z,8.52
2023-04-20T05:02:35.934Z,8.58
2023-04-20T05:05:03.378Z,8.65
2023-04-20T05:07:30.574Z,8.73
2023-04-20T05:09:57.658Z,8.85
2023-04-20T05:12:25.887Z,8.95
2023-04-20T05:14:53.478Z,8.99
2023-04-20T05:17:20.565Z,9.04
2023-04-20T05:19:47.638Z,9.04
2023-04-20T05:22:14.841Z,9.12
2023-04-20T05:24:42.632Z,9.17
2023-04-20T05:27:09.955Z,9.17
2023-04-20T05:29:38.137Z,9.19
2023-04-20T05:32:05.439Z,9.22
2023-04-20T05:34:32.604Z,9.25
2023-04-20T05:36:59.925Z,9.24
2023-04-20T05:39:26.976Z,9.20
2023-04-20T05:41:53.982Z,9.19
2023-04-20T05:44:21.016Z,9.19
2023-04-20T05:46:48.053Z,9.23
2023-04-20T05:49:15.120Z,9.33
2023-04-20T05:51:42.166Z,9.42
2023-04-20T05:54:09.987Z,9.56
2023-04-20T05:56:37.089Z,9.67
2023-04-20T05:59:05.046Z,9.78
2023-04-20T06:01:32.261Z,9.82
2023-04-20T06:03:59.624Z,9.90
2023-04-20T06:06:26.991Z,9.98
2023-04-20T06:08:55.229Z,10.02
2023-04-20T06:11:22.353Z,10.08
2023-04-20T06:13:49.326Z,10.15
2023-04-20T06:16:16.451Z,10.23
2023-04-20T06:18:43.956Z,10.30
2023-04-20T06:21:11.569Z,10.32
2023-04-20T06:23:38.698Z,10.30
2023-04-20T06:26:08.993Z,10.26
2023-04-20T06:28:36.617Z,10.19
2023-04-20T06:31:04.589Z,10.19
2023-04-20T06:33:31.905Z,10.32
2023-04-20T06:35:59.280Z,10.53
2023-04-20T06:38:27.829Z,10.75
2023-04-20T06:40:55.088Z,10.87
2023-04-20T06:43:22.140Z,10.87
2023-04-20T06:45:49.175Z,10.92
2023-04-20T06:48:30.799Z,11.00
2023-04-20T06:50:59.033Z,11.13
2023-04-20T06:53:26.430Z,11.22
2023-04-20T06:55:56.735Z,11.29
2023-04-20T06:58:23.644Z,11.36
2023-04-20T07:00:50.668Z,11.43
2023-04-20T07:03:19.497Z,11.57
2023-04-20T07:05:46.902Z,11.68
2023-04-20T07:08:16.163Z,11.68
2023-04-20T07:10:43.392Z,11.60
2023-04-20T07:13:10.405Z,11.64
2023-04-20T07:15:37.829Z,11.60
2023-04-20T07:18:05.004Z,11.65
2023-04-20T07:20:32.668Z,11.68
2023-04-20T07:22:59.768Z,11.76
2023-04-20T07:25:27.465Z,11.90
2023-04-20T07:27:54.553Z,12.01
2023-04-20T07:30:21.758Z,12.12
2023-04-20T07:32:49.354Z,12.37
2023-04-20T07:35:16.680Z,12.59
2023-04-20T07:37:43.748Z,12.71
2023-04-20T07:40:11.175Z,12.64
2023-04-20T07:42:38.569Z,12.50
2023-04-20T07:45:06.994Z,12.40
2023-04-20T07:47:35.381Z,12.45
2023-04-20T07:50:03.354Z,12.44
2023-04-20T07:52:30.792Z,12.44
2023-04-20T07:54:58.890Z,12.42
2023-04-20T07:57:26.888Z,12.34
2023-04-20T07:59:54.140Z,12.31
2023-04-20T08:02:21.344Z,12.21
2023-04-20T08:04:50.037Z,12.17
2023-04-20T08:07:17.958Z,12.18
2023-04-20T08:09:45.322Z,12.25
2023-04-20T08:12:12.406Z,12.25
2023-04-20T08:14:40.700Z,12.32
2023-04-20T08:17:08.403Z,12.31
2023-04-20T08:19:35.563Z,12.34
2023-04-20T08:22:03.467Z,12.35
2023-04-20T08:24:30.809Z,12.37
2023-04-20T08:26:59.415Z,12.39
2023-04-20T08:29:26.723Z,12.42
2023-04-20T08:31:53.915Z,12.52
2023-04-20T08:34:20.970Z,12.71
2023-04-20T08:36:48.142Z,12.91
2023-04-20T08:39:20.414Z,12.99
2023-04-20T08:41:48.309Z,13.07
2023-04-20T08:44:15.694Z,13.17
2023-04-20T08:46:45.550Z,13.26
2023-04-20T08:49:13.340Z,13.50
2023-04-20T08:51:40.692Z,13.77
2023-04-20T08:54:07.989Z,13.98
2023-04-20T08:56:39.587Z,14.12
2023-04-20T08:59:10.236Z,14.32
2023-04-20T09:01:39.504Z,14.34
2023-04-20T09:04:24.802Z,14.32
2023-04-20T09:06:54.543Z,14.35
2023-04-20T09:09:23.868Z,14.61
2023-04-20T09:12:05.261Z,14.84
2023-04-20T09:14:42.999Z,14.94
2023-04-20T09:17:14.637Z,14.99
2023-04-20T09:19:44.679Z,15.16
2023-04-20T09:22:12.043Z,15.24
2023-04-20T09:24:41.319Z,15.39
2023-04-20T09:27:19.379Z,15.45
2023-04-20T09:30:07.965Z,15.56
2023-04-20T09:32:35.945Z,15.77
2023-04-20T09:35:03.048Z,15.99
2023-04-20T09:37:30.776Z,16.15
2023-04-20T09:40:01.028Z,16.23
2023-04-20T09:42:29.143Z,16.30
2023-04-20T09:44:57.542Z,16.34
2023-04-20T09:47:26.887Z,16.38
2023-04-20T09:49:54.970Z,16.48
2023-04-20T09:52:24.362Z,16.61
2023-04-20T09:54:51.735Z,16.77
2023-04-20T09:57:19.955Z,16.82
2023-04-20T09:59:47.573Z,16.80
2023-04-20T10:02:15.417Z,16.83
2023-04-20T10:05:12.116Z,16.86
2023-04-20T10:07:39.319Z,16.82
2023-04-20T10:10:09.226Z,16.87
2023-04-20T10:12:56.319Z,16.87
2023-04-20T10:15:25.128Z,16.80
2023-04-20T10:17:52.402Z,16.78
2023-04-20T10:20:19.896Z,16.78
2023-04-20T10:22:47.235Z,16.75
2023-04-20T10:25:27.098Z,16.61
2023-04-20T10:27:59.176Z,16.50
2023-04-20T10:30:28.030Z,16.48
2023-04-20T10:33:11.953Z,16.56
2023-04-20T10:35:56.436Z,16.63
2023-04-20T10:38:34.136Z,16.80
2023-04-20T10:41:10.802Z,16.90
2023-04-20T10:43:43.416Z,16.91
2023-04-20T10:46:24.523Z,17.02
2023-04-20T10:48:54.090Z,17.32
2023-04-20T10:51:21.641Z,17.26
2023-04-20T10:54:18.638Z,17.21
2023-04-20T10:56:47.936Z,17.23
2023-04-20T10:59:17.379Z,17.25
2023-04-20T11:01:46.764Z,17.35
2023-04-20T11:04:18.370Z,17.30
2023-04-20T11:06:48.524Z,17.22
2023-04-20T11:09:28.605Z,17.04
2023-04-20T11:12:00.265Z,16.91
2023-04-20T11:14:27.324Z,16.97
2023-04-20T11:16:54.601Z,16.98
2023-04-20T11:19:29.678Z,17.05
2023-04-20T11:21:57.312Z,17.20
2023-04-20T11:24:26.850Z,17.45
2023-04-20T11:26:55.233Z,17.61
2023-04-20T11:29:35.491Z,17.77
2023-04-20T11:32:10.446Z,17.95
2023-04-20T11:34:39.886Z,17.75
2023-04-20T11:37:10.256Z,17.48
2023-04-20T11:39:38.081Z,17.15
2023-04-20T11:42:06.212Z,17.02
2023-04-20T11:44:34.172Z,17.17
2023-04-20T11:47:02.051Z,17.43
2023-04-20T11:49:29.660Z,17.67
2023-04-20T11:51:56.747Z,17.86
2023-04-20T11:54:24.550Z,17.76
2023-04-20T11:56:52.042Z,17.59
2023-04-20T11:59:20.670Z,17.41
2023-04-20T12:01:48.466Z,17.25
2023-04-20T12:04:16.477Z,17.19
2023-04-20T12:06:45.076Z,17.31
2023-04-20T12:09:13.561Z,17.45
2023-04-20T12:11:41.128Z,17.65
2023-04-20T12:14:08.252Z,17.88
2023-04-20T12:16:35.332Z,18.00
2023-04-20T12:19:02.422Z,17.97
2023-04-20T12:21:29.514Z,17.70
2023-04-20T12:23:57.855Z,17.42
2023-04-20T12:26:31.977Z,17.19
2023-04-20T12:29:04.865Z,16.96
2023-04-20T12:31:31.976Z,16.78
2023-04-20T12:33:59.121Z,16.63
2023-04-20T12:36:26.448Z,16.65
2023-04-20T12:38:55.645Z,16.82
2023-04-20T12:41:23.791Z,17.08
2023-04-20T12:43:51.516Z,17.28
2023-04-20T12:46:18.842Z,17.44
2023-04-20T12:48:46.266Z,17.53
2023-04-20T12:51:14.286Z,17.64
2023-04-20T12:53:41.833Z,17.81
2023-04-20T12:56:08.947Z,17.84
2023-04-20T12:58:36.128Z,17.87
2023-04-20T13:01:03.880Z,18.00
2023-04-20T13:03:31.546Z,18.09
2023-04-20T13:06:00.569Z,18.02
2023-04-20T13:08:27.790Z,17.99
2023-04-20T13:10:54.871Z,17.94
2023-04-20T13:13:21.932Z,17.78
2023-04-20T13:15:49.180Z,17.49
2023-04-20T13:18:16.305Z,17.12
2023-04-20T13:20:43.320Z,16.78
2023-04-20T13:23:10.378Z,16.56
2023-04-20T13:25:38.888Z,16.30
2023-04-20T13:28:06.529Z,16.05
2023-04-20T13:30:33.642Z,15.82
2023-04-20T13:33:00.846Z,15.67
2023-04-20T13:35:27.969Z,15.57
2023-04-20T13:37:55.287Z,15.57
2023-04-20T13:40:22.863Z,15.54
2023-04-20T13:42:49.983Z,15.58
2023-04-20T13:45:17.619Z,15.61
2023-04-20T13:47:44.759Z,15.63
2023-04-20T13:50:12.050Z,15.63
2023-04-20T13:52:39.173Z,15.62
2023-04-20T13:55:06.864Z,15.63
2023-04-20T13:57:33.948Z,15.60
2023-04-20T14:00:02.114Z,15.59
2023-04-20T14:02:33.337Z,15.69
2023-04-20T14:05:00.535Z,15.78
2023-04-20T14:07:27.602Z,15.88
2023-04-20T14:09:56.645Z,15.95
2023-04-20T14:12:24.052Z,16.07
2023-04-20T14:14:51.225Z,16.11
2023-04-20T14:17:18.339Z,16.19
2023-04-20T14:19:45.535Z,16.29
2023-04-20T14:22:12.610Z,16.33
2023-04-20T14:24:40.909Z,16.35
2023-04-20T14:27:08.176Z,16.36
2023-04-20T14:29:35.230Z,16.45
2023-04-20T14:32:02.382Z,16.50
2023-04-20T14:34:29.531Z,16.52
2023-04-20T14:36:56.850Z,16.61
2023-04-20T14:39:23.955Z,16.59
2023-04-20T14:41:51.072Z,16.58
2023-04-20T14:44:18.382Z,16.65
2023-04-20T14:46:45.811Z,16.70
2023-04-20T14:49:12.906Z,16.79
2023-04-20T14:51:40.000Z,16.87
2023-04-20T14:54:07.085Z,17.00
2023-04-20T14:56:34.359Z,17.02
2023-04-20T14:59:01.689Z,17.00
2023-04-20T15:01:29.404Z,16.95
2023-04-20T15:03:56.754Z,16.89
2023-04-20T15:06:24.079Z,16.83
2023-04-20T15:08:54.640Z,16.78
2023-04-20T15:11:21.703Z,16.72
2023-04-20T15:13:49.636Z,16.68
2023-04-20T15:16:16.717Z,16.65
2023-04-20T15:18:43.777Z,16.62
2023-04-20T15:21:11.175Z,16.60
2023-04-20T15:23:38.367Z,16.57
2023-04-20T15:26:06.777Z,16.55
2023-04-20T15:28:33.864Z,16.52
2023-04-20T15:31:01.224Z,16.48
2023-04-20T15:33:28.277Z,16.44
2023-04-20T15:35:55.584Z,16.39
2023-04-20T15:38:22.620Z,16.36
2023-04-20T15:40:51.454Z,16.33
2023-04-20T15:43:18.537Z,16.32
2023-04-20T15:45:45.845Z,16.27
2023-04-20T15:48:12.964Z,16.24
2023-04-20T15:50:40.103Z,16.21
2023-04-20T15:53:07.564Z,16.18
2023-04-20T15:55:38.505Z,16.14
2023-04-20T15:58:05.567Z,16.09
2023-04-20T16:00:32.819Z,16.04
2023-04-20T16:03:01.743Z,15.93
2023-04-20T16:05:29.200Z,15.89
2023-04-20T16:07:56.881Z,15.83
2023-04-20T16:10:24.039Z,15.78
2023-04-20T16:12:51.223Z,15.72
2023-04-20T16:15:18.937Z,15.64
2023-04-20T16:17:46.334Z,15.63
2023-04-20T16:20:13.899Z,15.59
2023-04-20T16:22:41.184Z,15.55
2023-04-20T16:25:09.690Z,15.56
2023-04-20T16:27:36.951Z,15.57
2023-04-20T16:30:04.504Z,15.54
2023-04-20T16:32:31.648Z,15.59
2023-04-20T16:34:58.849Z,15.60
2023-04-20T16:37:25.984Z,15.59
2023-04-20T16:39:53.000Z,15.63
2023-04-20T16:42:20.092Z,15.61
2023-04-20T16:44:47.124Z,15.60
2023-04-20T16:47:14.200Z,15.60
2023-04-20T16:49:41.309Z,15.57
2023-04-20T16:52:08.900Z,15.56
2023-04-20T16:54:36.056Z,15.54
2023-04-20T16:57:03.880Z,15.51
2023-04-20T16:59:30.958Z,15.47
2023-04-20T17:01:58.121Z,15.46
2023-04-20T17:04:25.434Z,15.44
2023-04-20T17:06:53.206Z,15.40
2023-04-20T17:09:20.313Z,15.39
2023-04-20T17:11:47.352Z,15.35
2023-04-20T17:14:14.503Z,15.29
2023-04-20T17:16:41.673Z,15.25
2023-04-20T17:19:08.818Z,15.23
2023-04-20T17:21:35.954Z,15.16
2023-04-20T17:24:03.158Z,15.10
2023-04-20T17:26:30.220Z,15.04
2023-04-20T17:28:57.297Z,15.00
2023-04-20T17:31:24.469Z,14.92
2023-04-20T17:33:51.580Z,14.84
2023-04-20T17:36:18.650Z,14.76
2023-04-20T17:38:45.843Z,14.75
2023-04-20T17:41:12.983Z,14.71
2023-04-20T17:43:43.513Z,14.66
2023-04-20T17:46:10.760Z,14.63
2023-04-20T17:48:37.912Z,14.61
2023-04-20T17:51:05.144Z,14.60
2023-04-20T17:53:32.195Z,14.57
2023-04-20T17:55:59.234Z,14.53
2023-04-20T17:58:26.354Z,14.50
2023-04-20T18:00:53.450Z,14.52
2023-04-20T18:03:21.361Z,14.51
2023-04-20T18:05:48.602Z,14.47
2023-04-20T18:08:17.788Z,14.42
2023-04-20T18:10:45.054Z,14.40
2023-04-20T18:13:15.156Z,14.41
2023-04-20T18:15:42.422Z,14.38
2023-04-20T18:18:09.483Z,14.37
2023-04-20T18:20:36.674Z,14.34
2023-04-20T18:23:03.812Z,14.32
2023-04-20T18:25:30.905Z,14.26
2023-04-20T18:27:58.030Z,14.22
2023-04-20T18:30:25.345Z,14.16
2023-04-20T18:32:53.933Z,14.10
2023-04-20T18:35:21.106Z,14.05
2023-04-20T18:37:48.196Z,14.01
2023-04-20T18:40:16.459Z,13.94
2023-04-20T18:42:43.872Z,13.92
2023-04-20T18:45:13.300Z,13.85
2023-04-20T18:47:40.532Z,13.85
2023-04-20T18:50:07.960Z,13.81
2023-04-20T18:52:35.337Z,13.71
2023-04-20T18:55:02.619Z,13.74
2023-04-20T18:57:29.702Z,13.70
2023-04-20T18:59:56.855Z,13.67
2023-04-20T19:02:24.098Z,13.63
2023-04-20T19:04:51.407Z,13.55
2023-04-20T19:07:18.851Z,13.54
2023-04-20T19:09:46.010Z,13.50
2023-04-20T19:12:13.084Z,13.44
2023-04-20T19:14:40.085Z,13.44
2023-04-20T19:17:08.060Z,13.41
2023-04-20T19:19:35.244Z,13.34
2023-04-20T19:22:03.674Z,13.27
2023-04-20T19:24:34.502Z,13.29
2023-04-20T19:27:02.364Z,13.24
2023-04-20T19:29:29.703Z,13.19
2023-04-20T19:31:56.892Z,13.19
2023-04-20T19:34:23.993Z,13.15
2023-04-20T19:36:51.314Z,13.11
2023-04-20T19:39:18.483Z,13.08
2023-04-20T19:41:45.764Z,13.05
2023-04-20T19:44:14.613Z,12.99
2023-04-20T19:46:43.620Z,12.96
2023-04-20T19:49:10.810Z,12.88
2023-04-20T19:51:37.946Z,12.88
2023-04-20T19:54:05.351Z,12.84
2023-04-20T19:56:32.839Z,12.77
2023-04-20T19:58:59.845Z,12.79
2023-04-20T20:01:27.179Z,12.72
2023-04-20T20:03:54.628Z,12.73
2023-04-20T20:06:22.774Z,12.70
2023-04-20T20:08:50.103Z,12.66
2023-04-20T20:11:17.248Z,12.62
2023-04-20T20:13:44.302Z,12.59
2023-04-20T20:16:12.399Z,12.49
2023-04-20T20:18:39.719Z,12.50
2023-04-20T20:21:06.865Z,12.48
2023-04-20T20:23:34.008Z,12.45
2023-04-20T20:26:01.435Z,12.38
2023-04-20T20:28:29.012Z,12.38
2023-04-20T20:30:56.447Z,12.36
2023-04-20T20:33:23.641Z,12.32
2023-04-20T20:35:51.116Z,12.30
2023-04-20T20:38:21.056Z,12.27
2023-04-20T20:40:53.581Z,12.24
2023-04-20T20:43:21.795Z,12.20
2023-04-20T20:45:49.053Z,12.18
2023-04-20T20:48:16.149Z,12.15
2023-04-20T20:50:43.504Z,12.14
2023-04-20T20:53:10.583Z,12.10
2023-04-20T20:55:37.704Z,12.07
2023-04-20T20:58:04.835Z,12.02
2023-04-20T21:00:33.577Z,12.03
2023-04-20T21:03:00.980Z,11.98
2023-04-20T21:05:28.385Z,11.96
2023-04-20T21:07:55.548Z,11.90
2023-04-20T21:10:22.709Z,11.90
2023-04-20T21:12:49.791Z,11.82
2023-04-20T21:15:17.004Z,11.83
2023-04-20T21:17:44.075Z,11.80
2023-04-20T21:20:11.803Z,11.78
2023-04-20T21:22:40.070Z,11.75
2023-04-20T21:25:08.335Z,11.71
2023-04-20T21:27:35.446Z,11.68
2023-04-20T21:30:02.751Z,11.60
2023-04-20T21:32:29.791Z,11.60
2023-04-20T21:34:57.052Z,11.61
2023-04-20T21:37:24.128Z,11.58
2023-04-20T21:39:51.528Z,11.52
2023-04-20T21:42:18.609Z,11.51
2023-04-20T21:44:45.669Z,11.52
2023-04-20T21:47:12.768Z,11.48
2023-04-20T21:49:39.841Z,11.48
2023-04-20T21:52:06.922Z,11.47
2023-04-20T21:54:34.855Z,11.44
2023-04-20T21:57:02.025Z,11.45
2023-04-20T21:59:29.212Z,11.44
2023-04-20T22:01:56.348Z,11.44
2023-04-20T22:04:27.145Z,11.42
2023-04-20T22:06:55.658Z,11.39
2023-04-20T22:09:23.270Z,11.36
2023-04-20T22:11:50.341Z,11.35
2023-04-20T22:14:17.869Z,11.30
2023-04-20T22:16:45.224Z,11.29
2023-04-20T22:19:12.509Z,11.28
2023-04-20T22:21:39.696Z,11.25
2023-04-20T22:24:07.022Z,11.19
2023-04-20T22:26:34.104Z,11.21
2023-04-20T22:29:01.274Z,11.19
2023-04-20T22:31:28.383Z,11.18
2023-04-20T22:33:55.596Z,11.15
2023-04-20T22:36:22.685Z,11.12
2023-04-20T22:38:49.813Z,11.09
2023-04-20T22:41:17.668Z,11.05
2023-04-20T22:43:44.911Z,11.01
2023-04-20T22:46:12.324Z,10.95
2023-04-20T22:48:40.578Z,10.93
2023-04-20T22:51:07.755Z,10.88
2023-04-20T22:53:34.839Z,10.85
2023-04-20T22:56:06.338Z,10.83
2023-04-20T22:58:33.432Z,10.82
2023-04-20T23:01:00.668Z,10.75
2023-04-20T23:03:28.393Z,10.78
2023-04-20T23:05:57.734Z,10.74
2023-04-20T23:08:25.862Z,10.70
2023-04-20T23:10:55.924Z,10.70
2023-04-20T23:13:26.492Z,10.67
2023-04-20T23:15:53.906Z,10.64
2023-04-20T23:18:21.082Z,10.63
2023-04-20T23:20:48.202Z,10.62
2023-04-20T23:23:15.360Z,10.60
2023-04-20T23:25:42.423Z,10.57
2023-04-20T23:28:09.580Z,10.53
2023-04-20T23:30:36.789Z,10.54
2023-04-20T23:33:04.078Z,10.56
2023-04-20T23:35:31.249Z,10.54
2023-04-20T23:37:58.357Z,10.54
2023-04-20T23:40:26.022Z,10.46
2023-04-20T23:42:53.158Z,10.53
2023-04-20T23:45:20.301Z,10.51
2023-04-20T23:47:47.648Z,10.49
2023-04-20T23:50:15.036Z,10.44
2023-04-20T23:52:42.137Z,10.45
2023-04-20T23:55:10.544Z,10.41
2023-04-20T23:57:37.683Z,10.39
